sensor_id;sensor_type;location;lat;lon;timestamp;P1;durP1;ratioP1;P2;durP2;ratioP2
56041;SDS011;48756;41.374;2.066;2023-02-14T00:01:46;24.23;;;14.73;;
56041;SDS011;48756;41.374;2.066;2023-02-14T00:06:37;12.98;;;11.65;;
56041;SDS011;48756;41.374;2.066;2023-02-14T00:09:07;15.65;;;13.55;;
56041;SDS011;48756;41.374;2.066;2023-02-14T00:11:36;15.13;;;12.50;;
56041;SDS011;48756;41.374;2.066;2023-02-14T00:14:02;13.25;;;11.88;;
56041;SDS011;48756;41.374;2.066;2023-02-14T00:16:46;16.10;;;11.90;;
56041;SDS011;48756;41.374;2.066;2023-02-14T00:19:13;14.73;;;12.10;;
56041;SDS011;48756;41.374;2.066;2023-02-14T00:21:40;13.25;;;10.65;;
56041;SDS011;48756;41.374;2.066;2023-02-14T00:24:08;11.70;;;10.35;;
56041;SDS011;48756;41.374;2.066;2023-02-14T00:26:38;16.45;;;11.73;;
56041;SDS011;48756;41.374;2.066;2023-02-14T00:31:31;19.10;;;11.70;;
56041;SDS011;48756;41.374;2.066;2023-02-14T00:33:57;19.20;;;11.95;;
56041;SDS011;48756;41.374;2.066;2023-02-14T00:36:22;14.93;;;11.33;;
56041;SDS011;48756;41.374;2.066;2023-02-14T00:38:51;17.15;;;13.43;;
56041;SDS011;48756;41.374;2.066;2023-02-14T00:41:16;16.10;;;12.15;;
56041;SDS011;48756;41.374;2.066;2023-02-14T00:43:45;14.80;;;11.20;;
56041;SDS011;48756;41.374;2.066;2023-02-14T00:46:15;14.18;;;10.02;;
56041;SDS011;48756;41.374;2.066;2023-02-14T00:48:42;14.65;;;11.55;;
56041;SDS011;48756;41.374;2.066;2023-02-14T00:51:08;13.88;;;10.45;;
56041;SDS011;48756;41.374;2.066;2023-02-14T00:53:34;16.08;;;11.68;;
56041;SDS011;48756;41.374;2.066;2023-02-14T00:56:00;11.98;;;10.60;;
56041;SDS011;48756;41.374;2.066;2023-02-14T00:58:27;13.65;;;11.27;;
56041;SDS011;48756;41.374;2.066;2023-02-14T01:00:53;14.17;;;10.10;;
56041;SDS011;48756;41.374;2.066;2023-02-14T01:03:22;12.23;;;11.00;;
56041;SDS011;48756;41.374;2.066;2023-02-14T01:05:48;16.73;;;12.82;;
56041;SDS011;48756;41.374;2.066;2023-02-14T01:08:14;12.27;;;10.65;;
56041;SDS011;48756;41.374;2.066;2023-02-14T01:10:40;15.30;;;11.90;;
56041;SDS011;48756;41.374;2.066;2023-02-14T01:13:05;14.75;;;11.20;;
56041;SDS011;48756;41.374;2.066;2023-02-14T01:15:31;13.03;;;9.77;;
56041;SDS011;48756;41.374;2.066;2023-02-14T01:17:58;13.32;;;10.50;;
56041;SDS011;48756;41.374;2.066;2023-02-14T01:22:50;14.90;;;11.13;;
56041;SDS011;48756;41.374;2.066;2023-02-14T01:25:16;17.27;;;11.63;;
56041;SDS011;48756;41.374;2.066;2023-02-14T01:27:45;17.65;;;11.15;;
56041;SDS011;48756;41.374;2.066;2023-02-14T01:30:11;12.53;;;10.80;;
56041;SDS011;48756;41.374;2.066;2023-02-14T01:32:37;12.02;;;10.55;;
56041;SDS011;48756;41.374;2.066;2023-02-14T01:35:02;14.40;;;11.30;;
56041;SDS011;48756;41.374;2.066;2023-02-14T01:37:29;12.20;;;10.57;;
56041;SDS011;48756;41.374;2.066;2023-02-14T01:39:54;16.95;;;11.25;;
56041;SDS011;48756;41.374;2.066;2023-02-14T01:42:20;14.15;;;11.90;;
56041;SDS011;48756;41.374;2.066;2023-02-14T01:47:19;14.50;;;12.85;;
56041;SDS011;48756;41.374;2.066;2023-02-14T01:49:49;14.38;;;11.30;;
56041;SDS011;48756;41.374;2.066;2023-02-14T01:52:24;12.57;;;10.88;;
56041;SDS011;48756;41.374;2.066;2023-02-14T01:55:05;13.57;;;11.18;;
56041;SDS011;48756;41.374;2.066;2023-02-14T01:57:35;21.38;;;12.48;;
56041;SDS011;48756;41.374;2.066;2023-02-14T02:00:22;15.63;;;11.93;;
56041;SDS011;48756;41.374;2.066;2023-02-14T02:03:07;16.20;;;13.35;;
56041;SDS011;48756;41.374;2.066;2023-02-14T02:05:34;17.85;;;13.93;;
56041;SDS011;48756;41.374;2.066;2023-02-14T02:08:02;14.98;;;12.60;;
56041;SDS011;48756;41.374;2.066;2023-02-14T02:10:28;14.02;;;10.40;;
56041;SDS011;48756;41.374;2.066;2023-02-14T02:12:54;16.75;;;13.52;;
56041;SDS011;48756;41.374;2.066;2023-02-14T02:15:27;15.32;;;11.35;;
56041;SDS011;48756;41.374;2.066;2023-02-14T02:18:02;14.23;;;12.55;;
56041;SDS011;48756;41.374;2.066;2023-02-14T02:26:34;19.75;;;14.60;;
56041;SDS011;48756;41.374;2.066;2023-02-14T02:37:01;16.55;;;12.80;;
56041;SDS011;48756;41.374;2.066;2023-02-14T02:40:08;19.27;;;13.13;;
56041;SDS011;48756;41.374;2.066;2023-02-14T02:50:28;28.35;;;11.57;;
56041;SDS011;48756;41.374;2.066;2023-02-14T02:53:21;19.55;;;11.82;;
56041;SDS011;48756;41.374;2.066;2023-02-14T02:55:57;18.33;;;12.63;;
56041;SDS011;48756;41.374;2.066;2023-02-14T03:01:21;14.23;;;12.07;;
56041;SDS011;48756;41.374;2.066;2023-02-14T03:03:51;13.38;;;9.25;;
56041;SDS011;48756;41.374;2.066;2023-02-14T03:06:43;15.10;;;11.40;;
56041;SDS011;48756;41.374;2.066;2023-02-14T03:09:10;13.30;;;11.68;;
56041;SDS011;48756;41.374;2.066;2023-02-14T03:11:37;23.25;;;12.32;;
56041;SDS011;48756;41.374;2.066;2023-02-14T03:14:17;43.53;;;12.90;;
56041;SDS011;48756;41.374;2.066;2023-02-14T03:16:53;30.20;;;16.30;;
56041;SDS011;48756;41.374;2.066;2023-02-14T03:19:28;10.77;;;9.15;;
56041;SDS011;48756;41.374;2.066;2023-02-14T03:22:39;15.57;;;12.93;;
56041;SDS011;48756;41.374;2.066;2023-02-14T03:31:06;13.03;;;11.40;;
56041;SDS011;48756;41.374;2.066;2023-02-14T03:36:52;19.65;;;12.90;;
56041;SDS011;48756;41.374;2.066;2023-02-14T03:39:55;16.00;;;13.77;;
56041;SDS011;48756;41.374;2.066;2023-02-14T03:42:29;18.70;;;12.52;;
56041;SDS011;48756;41.374;2.066;2023-02-14T03:44:59;19.20;;;13.77;;
56041;SDS011;48756;41.374;2.066;2023-02-14T03:47:27;16.73;;;13.88;;
56041;SDS011;48756;41.374;2.066;2023-02-14T03:49:58;18.67;;;12.20;;
56041;SDS011;48756;41.374;2.066;2023-02-14T03:52:28;17.17;;;12.52;;
56041;SDS011;48756;41.374;2.066;2023-02-14T03:54:56;16.77;;;12.43;;
56041;SDS011;48756;41.374;2.066;2023-02-14T03:57:26;16.88;;;12.07;;
56041;SDS011;48756;41.374;2.066;2023-02-14T03:59:56;15.32;;;13.48;;
56041;SDS011;48756;41.374;2.066;2023-02-14T04:04:55;17.90;;;13.00;;
56041;SDS011;48756;41.374;2.066;2023-02-14T04:07:24;16.33;;;12.48;;
56041;SDS011;48756;41.374;2.066;2023-02-14T04:09:50;18.00;;;15.13;;
56041;SDS011;48756;41.374;2.066;2023-02-14T04:12:16;17.35;;;13.80;;
56041;SDS011;48756;41.374;2.066;2023-02-14T04:14:42;16.25;;;13.10;;
56041;SDS011;48756;41.374;2.066;2023-02-14T04:17:08;16.53;;;13.23;;
56041;SDS011;48756;41.374;2.066;2023-02-14T04:19:52;17.73;;;13.07;;
56041;SDS011;48756;41.374;2.066;2023-02-14T04:22:18;14.90;;;12.80;;
56041;SDS011;48756;41.374;2.066;2023-02-14T04:24:46;14.70;;;12.13;;
56041;SDS011;48756;41.374;2.066;2023-02-14T04:27:12;14.57;;;10.43;;
56041;SDS011;48756;41.374;2.066;2023-02-14T04:29:45;19.35;;;13.68;;
56041;SDS011;48756;41.374;2.066;2023-02-14T04:32:16;16.60;;;13.93;;
56041;SDS011;48756;41.374;2.066;2023-02-14T04:34:44;23.70;;;12.13;;
56041;SDS011;48756;41.374;2.066;2023-02-14T04:37:10;19.53;;;12.37;;
56041;SDS011;48756;41.374;2.066;2023-02-14T04:39:36;28.42;;;12.80;;
56041;SDS011;48756;41.374;2.066;2023-02-14T04:42:02;14.07;;;11.85;;
56041;SDS011;48756;41.374;2.066;2023-02-14T04:46:54;15.43;;;12.10;;
56041;SDS011;48756;41.374;2.066;2023-02-14T04:49:19;16.30;;;11.55;;
56041;SDS011;48756;41.374;2.066;2023-02-14T04:51:45;17.57;;;14.33;;
56041;SDS011;48756;41.374;2.066;2023-02-14T04:54:11;15.90;;;13.73;;
56041;SDS011;48756;41.374;2.066;2023-02-14T04:56:36;15.45;;;11.60;;
56041;SDS011;48756;41.374;2.066;2023-02-14T04:59:02;15.40;;;11.25;;
56041;SDS011;48756;41.374;2.066;2023-02-14T05:01:29;15.18;;;12.27;;
56041;SDS011;48756;41.374;2.066;2023-02-14T05:03:54;15.17;;;13.43;;
56041;SDS011;48756;41.374;2.066;2023-02-14T05:06:20;14.80;;;12.30;;
56041;SDS011;48756;41.374;2.066;2023-02-14T05:08:45;19.75;;;11.18;;
56041;SDS011;48756;41.374;2.066;2023-02-14T05:11:11;14.70;;;10.83;;
56041;SDS011;48756;41.374;2.066;2023-02-14T05:13:37;16.55;;;12.20;;
56041;SDS011;48756;41.374;2.066;2023-02-14T05:16:02;21.93;;;13.17;;
56041;SDS011;48756;41.374;2.066;2023-02-14T05:18:28;13.85;;;11.48;;
56041;SDS011;48756;41.374;2.066;2023-02-14T05:20:53;17.20;;;13.40;;
56041;SDS011;48756;41.374;2.066;2023-02-14T05:23:19;14.02;;;11.80;;
56041;SDS011;48756;41.374;2.066;2023-02-14T05:28:15;18.42;;;14.57;;
56041;SDS011;48756;41.374;2.066;2023-02-14T05:30:42;12.13;;;10.68;;
56041;SDS011;48756;41.374;2.066;2023-02-14T05:33:08;18.77;;;13.95;;
56041;SDS011;48756;41.374;2.066;2023-02-14T05:35:33;19.70;;;13.57;;
56041;SDS011;48756;41.374;2.066;2023-02-14T05:37:59;18.63;;;13.35;;
56041;SDS011;48756;41.374;2.066;2023-02-14T05:40:25;21.97;;;15.20;;
56041;SDS011;48756;41.374;2.066;2023-02-14T05:42:51;18.00;;;13.27;;
56041;SDS011;48756;41.374;2.066;2023-02-14T05:45:17;17.83;;;15.43;;
56041;SDS011;48756;41.374;2.066;2023-02-14T05:47:43;15.32;;;12.23;;
56041;SDS011;48756;41.374;2.066;2023-02-14T05:50:09;18.63;;;13.97;;
56041;SDS011;48756;41.374;2.066;2023-02-14T05:52:36;16.60;;;14.43;;
56041;SDS011;48756;41.374;2.066;2023-02-14T05:57:27;18.40;;;13.00;;
56041;SDS011;48756;41.374;2.066;2023-02-14T05:59:53;15.00;;;13.43;;
56041;SDS011;48756;41.374;2.066;2023-02-14T06:02:18;15.40;;;13.73;;
56041;SDS011;48756;41.374;2.066;2023-02-14T06:04:44;18.47;;;13.10;;
56041;SDS011;48756;41.374;2.066;2023-02-14T06:07:09;15.30;;;12.63;;
56041;SDS011;48756;41.374;2.066;2023-02-14T06:09:35;18.90;;;12.60;;
56041;SDS011;48756;41.374;2.066;2023-02-14T06:12:00;16.30;;;12.43;;
56041;SDS011;48756;41.374;2.066;2023-02-14T06:14:26;18.00;;;13.30;;
56041;SDS011;48756;41.374;2.066;2023-02-14T06:16:51;13.13;;;11.40;;
56041;SDS011;48756;41.374;2.066;2023-02-14T06:19:17;16.40;;;12.33;;
56041;SDS011;48756;41.374;2.066;2023-02-14T06:21:42;15.18;;;11.35;;
56041;SDS011;48756;41.374;2.066;2023-02-14T06:24:08;15.33;;;13.33;;
56041;SDS011;48756;41.374;2.066;2023-02-14T06:26:34;16.73;;;12.85;;
56041;SDS011;48756;41.374;2.066;2023-02-14T06:29:00;14.77;;;10.38;;
56041;SDS011;48756;41.374;2.066;2023-02-14T06:33:52;16.15;;;10.65;;
56041;SDS011;48756;41.374;2.066;2023-02-14T06:36:18;17.40;;;12.27;;
56041;SDS011;48756;41.374;2.066;2023-02-14T06:38:44;15.95;;;12.88;;
56041;SDS011;48756;41.374;2.066;2023-02-14T06:41:11;13.77;;;12.07;;
56041;SDS011;48756;41.374;2.066;2023-02-14T06:43:44;17.05;;;13.00;;
56041;SDS011;48756;41.374;2.066;2023-02-14T06:46:12;19.15;;;11.23;;
56041;SDS011;48756;41.374;2.066;2023-02-14T06:48:38;19.02;;;11.82;;
56041;SDS011;48756;41.374;2.066;2023-02-14T06:51:04;13.10;;;10.43;;
56041;SDS011;48756;41.374;2.066;2023-02-14T06:53:30;14.90;;;12.13;;
56041;SDS011;48756;41.374;2.066;2023-02-14T06:55:56;17.02;;;12.27;;
56041;SDS011;48756;41.374;2.066;2023-02-14T06:58:21;17.10;;;12.33;;
56041;SDS011;48756;41.374;2.066;2023-02-14T07:00:47;14.35;;;11.95;;
56041;SDS011;48756;41.374;2.066;2023-02-14T07:03:13;16.95;;;12.68;;
56041;SDS011;48756;41.374;2.066;2023-02-14T07:05:41;21.10;;;15.05;;
56041;SDS011;48756;41.374;2.066;2023-02-14T07:08:09;19.00;;;11.35;;
56041;SDS011;48756;41.374;2.066;2023-02-14T07:10:35;21.58;;;15.48;;
56041;SDS011;48756;41.374;2.066;2023-02-14T07:13:01;19.42;;;13.77;;
56041;SDS011;48756;41.374;2.066;2023-02-14T07:15:27;18.70;;;12.93;;
56041;SDS011;48756;41.374;2.066;2023-02-14T07:17:52;16.97;;;11.87;;
56041;SDS011;48756;41.374;2.066;2023-02-14T07:20:18;14.63;;;12.48;;
56041;SDS011;48756;41.374;2.066;2023-02-14T07:22:44;20.48;;;13.55;;
56041;SDS011;48756;41.374;2.066;2023-02-14T07:25:10;16.87;;;13.00;;
56041;SDS011;48756;41.374;2.066;2023-02-14T07:27:36;15.18;;;11.82;;
56041;SDS011;48756;41.374;2.066;2023-02-14T07:30:02;19.73;;;15.43;;
56041;SDS011;48756;41.374;2.066;2023-02-14T07:32:29;16.60;;;13.98;;
56041;SDS011;48756;41.374;2.066;2023-02-14T07:34:55;17.27;;;12.57;;
56041;SDS011;48756;41.374;2.066;2023-02-14T07:37:20;20.70;;;13.37;;
56041;SDS011;48756;41.374;2.066;2023-02-14T07:39:46;20.07;;;16.27;;
56041;SDS011;48756;41.374;2.066;2023-02-14T07:42:12;19.98;;;14.73;;
56041;SDS011;48756;41.374;2.066;2023-02-14T07:44:37;14.32;;;12.25;;
56041;SDS011;48756;41.374;2.066;2023-02-14T07:47:06;18.88;;;11.50;;
56041;SDS011;48756;41.374;2.066;2023-02-14T07:49:32;22.65;;;13.20;;
56041;SDS011;48756;41.374;2.066;2023-02-14T07:51:58;13.80;;;11.45;;
56041;SDS011;48756;41.374;2.066;2023-02-14T07:54:25;18.25;;;13.10;;
56041;SDS011;48756;41.374;2.066;2023-02-14T07:56:51;21.93;;;13.43;;
56041;SDS011;48756;41.374;2.066;2023-02-14T07:59:16;16.40;;;12.73;;
56041;SDS011;48756;41.374;2.066;2023-02-14T08:01:42;18.40;;;12.97;;
56041;SDS011;48756;41.374;2.066;2023-02-14T08:04:10;20.35;;;14.55;;
56041;SDS011;48756;41.374;2.066;2023-02-14T08:06:38;24.80;;;15.82;;
56041;SDS011;48756;41.374;2.066;2023-02-14T08:09:04;18.35;;;15.50;;
56041;SDS011;48756;41.374;2.066;2023-02-14T08:11:30;19.38;;;13.65;;
56041;SDS011;48756;41.374;2.066;2023-02-14T08:14:15;14.48;;;11.95;;
56041;SDS011;48756;41.374;2.066;2023-02-14T08:16:40;20.30;;;14.87;;
56041;SDS011;48756;41.374;2.066;2023-02-14T08:19:06;20.27;;;14.93;;
56041;SDS011;48756;41.374;2.066;2023-02-14T08:21:32;18.88;;;14.05;;
56041;SDS011;48756;41.374;2.066;2023-02-14T08:23:57;16.80;;;13.60;;
56041;SDS011;48756;41.374;2.066;2023-02-14T08:26:23;23.87;;;13.20;;
56041;SDS011;48756;41.374;2.066;2023-02-14T08:28:51;19.63;;;13.73;;
56041;SDS011;48756;41.374;2.066;2023-02-14T08:31:21;15.97;;;13.13;;
56041;SDS011;48756;41.374;2.066;2023-02-14T08:33:51;14.45;;;11.75;;
56041;SDS011;48756;41.374;2.066;2023-02-14T08:36:17;21.47;;;14.20;;
56041;SDS011;48756;41.374;2.066;2023-02-14T08:38:43;21.40;;;14.93;;
56041;SDS011;48756;41.374;2.066;2023-02-14T08:41:11;15.68;;;12.57;;
56041;SDS011;48756;41.374;2.066;2023-02-14T08:43:41;17.65;;;12.88;;
56041;SDS011;48756;41.374;2.066;2023-02-14T08:46:07;17.27;;;12.63;;
56041;SDS011;48756;41.374;2.066;2023-02-14T08:48:33;22.33;;;14.93;;
56041;SDS011;48756;41.374;2.066;2023-02-14T08:53:28;21.83;;;15.02;;
56041;SDS011;48756;41.374;2.066;2023-02-14T08:55:54;17.13;;;12.60;;
56041;SDS011;48756;41.374;2.066;2023-02-14T08:58:19;15.17;;;11.50;;
56041;SDS011;48756;41.374;2.066;2023-02-14T09:00:47;20.92;;;14.20;;
56041;SDS011;48756;41.374;2.066;2023-02-14T09:03:15;18.98;;;11.10;;
56041;SDS011;48756;41.374;2.066;2023-02-14T09:05:40;14.70;;;10.87;;
56041;SDS011;48756;41.374;2.066;2023-02-14T09:08:07;16.63;;;11.88;;
56041;SDS011;48756;41.374;2.066;2023-02-14T09:10:32;12.63;;;9.33;;
56041;SDS011;48756;41.374;2.066;2023-02-14T09:12:58;17.33;;;12.33;;
56041;SDS011;48756;41.374;2.066;2023-02-14T09:15:23;18.77;;;10.63;;
56041;SDS011;48756;41.374;2.066;2023-02-14T09:17:49;17.73;;;11.15;;
56041;SDS011;48756;41.374;2.066;2023-02-14T09:20:15;15.38;;;11.23;;
56041;SDS011;48756;41.374;2.066;2023-02-14T09:22:40;18.35;;;10.98;;
56041;SDS011;48756;41.374;2.066;2023-02-14T09:25:06;17.00;;;11.85;;
56041;SDS011;48756;41.374;2.066;2023-02-14T09:27:32;16.20;;;10.98;;
56041;SDS011;48756;41.374;2.066;2023-02-14T09:29:57;12.77;;;9.70;;
56041;SDS011;48756;41.374;2.066;2023-02-14T09:32:23;11.63;;;9.50;;
56041;SDS011;48756;41.374;2.066;2023-02-14T09:34:50;14.25;;;9.50;;
56041;SDS011;48756;41.374;2.066;2023-02-14T09:37:16;16.25;;;10.52;;
56041;SDS011;48756;41.374;2.066;2023-02-14T09:39:43;14.80;;;9.55;;
56041;SDS011;48756;41.374;2.066;2023-02-14T09:45:09;16.88;;;13.43;;
56041;SDS011;48756;41.374;2.066;2023-02-14T09:48:01;18.52;;;10.73;;
56041;SDS011;48756;41.374;2.066;2023-02-14T09:51:07;12.27;;;10.98;;
56041;SDS011;48756;41.374;2.066;2023-02-14T09:53:51;18.50;;;10.65;;
56041;SDS011;48756;41.374;2.066;2023-02-14T09:56:36;15.35;;;10.05;;
56041;SDS011;48756;41.374;2.066;2023-02-14T09:59:20;14.88;;;9.23;;
56041;SDS011;48756;41.374;2.066;2023-02-14T10:01:53;21.38;;;10.27;;
56041;SDS011;48756;41.374;2.066;2023-02-14T10:07:45;20.17;;;10.80;;
56041;SDS011;48756;41.374;2.066;2023-02-14T10:10:19;12.68;;;8.93;;
56041;SDS011;48756;41.374;2.066;2023-02-14T10:15:43;14.52;;;8.75;;
56041;SDS011;48756;41.374;2.066;2023-02-14T10:18:13;10.93;;;9.07;;
56041;SDS011;48756;41.374;2.066;2023-02-14T10:20:52;9.25;;;8.27;;
56041;SDS011;48756;41.374;2.066;2023-02-14T10:26:13;8.60;;;7.05;;
56041;SDS011;48756;41.374;2.066;2023-02-14T10:28:45;13.43;;;8.43;;
56041;SDS011;48756;41.374;2.066;2023-02-14T10:42:03;5.45;;;4.20;;
56041;SDS011;48756;41.374;2.066;2023-02-14T10:44:47;7.85;;;6.40;;
56041;SDS011;48756;41.374;2.066;2023-02-14T10:52:38;6.65;;;4.60;;
56041;SDS011;48756;41.374;2.066;2023-02-14T10:55:12;7.22;;;6.50;;
56041;SDS011;48756;41.374;2.066;2023-02-14T10:57:44;7.25;;;6.55;;
56041;SDS011;48756;41.374;2.066;2023-02-14T11:00:25;8.43;;;5.57;;
56041;SDS011;48756;41.374;2.066;2023-02-14T11:02:58;8.73;;;6.25;;
56041;SDS011;48756;41.374;2.066;2023-02-14T11:05:37;7.80;;;6.90;;
56041;SDS011;48756;41.374;2.066;2023-02-14T11:10:38;6.35;;;5.30;;
56041;SDS011;48756;41.374;2.066;2023-02-14T11:13:25;7.60;;;6.82;;
56041;SDS011;48756;41.374;2.066;2023-02-14T11:15:51;12.30;;;7.05;;
56041;SDS011;48756;41.374;2.066;2023-02-14T11:18:22;11.30;;;7.65;;
56041;SDS011;48756;41.374;2.066;2023-02-14T11:21:08;9.25;;;6.82;;
56041;SDS011;48756;41.374;2.066;2023-02-14T11:23:39;10.07;;;6.82;;
56041;SDS011;48756;41.374;2.066;2023-02-14T11:28:45;9.10;;;5.72;;
56041;SDS011;48756;41.374;2.066;2023-02-14T11:31:24;6.30;;;5.55;;
56041;SDS011;48756;41.374;2.066;2023-02-14T11:34:41;9.00;;;6.55;;
56041;SDS011;48756;41.374;2.066;2023-02-14T11:39:48;12.30;;;5.32;;
56041;SDS011;48756;41.374;2.066;2023-02-14T11:42:30;19.25;;;6.85;;
56041;SDS011;48756;41.374;2.066;2023-02-14T11:45:25;14.10;;;3.58;;
56041;SDS011;48756;41.374;2.066;2023-02-14T11:50:31;3.58;;;2.25;;
56041;SDS011;48756;41.374;2.066;2023-02-14T11:52:57;3.10;;;2.55;;
56041;SDS011;48756;41.374;2.066;2023-02-14T11:55:31;11.00;;;2.65;;
56041;SDS011;48756;41.374;2.066;2023-02-14T11:57:59;7.80;;;3.05;;
56041;SDS011;48756;41.374;2.066;2023-02-14T12:00:27;7.72;;;2.15;;
56041;SDS011;48756;41.374;2.066;2023-02-14T12:02:55;5.50;;;3.17;;
56041;SDS011;48756;41.374;2.066;2023-02-14T12:05:30;7.07;;;2.05;;
56041;SDS011;48756;41.374;2.066;2023-02-14T12:08:05;3.97;;;2.35;;
56041;SDS011;48756;41.374;2.066;2023-02-14T12:10:35;7.95;;;2.13;;
56041;SDS011;48756;41.374;2.066;2023-02-14T12:18:20;8.95;;;2.63;;
56041;SDS011;48756;41.374;2.066;2023-02-14T12:31:55;4.28;;;1.63;;
56041;SDS011;48756;41.374;2.066;2023-02-14T12:34:25;4.45;;;1.38;;
56041;SDS011;48756;41.374;2.066;2023-02-14T12:42:22;2.20;;;1.25;;
56041;SDS011;48756;41.374;2.066;2023-02-14T12:53:27;9.65;;;2.80;;
56041;SDS011;48756;41.374;2.066;2023-02-14T12:56:31;7.32;;;2.22;;
56041;SDS011;48756;41.374;2.066;2023-02-14T13:07:22;5.72;;;1.85;;
56041;SDS011;48756;41.374;2.066;2023-02-14T13:18:36;6.00;;;2.20;;
56041;SDS011;48756;41.374;2.066;2023-02-14T13:21:17;2.58;;;1.65;;
56041;SDS011;48756;41.374;2.066;2023-02-14T13:23:50;8.20;;;1.48;;
56041;SDS011;48756;41.374;2.066;2023-02-14T13:26:19;21.20;;;2.85;;
56041;SDS011;48756;41.374;2.066;2023-02-14T13:28:55;3.53;;;1.10;;
56041;SDS011;48756;41.374;2.066;2023-02-14T13:31:26;3.38;;;1.48;;
56041;SDS011;48756;41.374;2.066;2023-02-14T13:33:53;2.38;;;1.50;;
56041;SDS011;48756;41.374;2.066;2023-02-14T13:36:27;3.63;;;2.10;;
56041;SDS011;48756;41.374;2.066;2023-02-14T13:38:54;5.32;;;2.90;;
56041;SDS011;48756;41.374;2.066;2023-02-14T13:41:22;2.83;;;2.08;;
56041;SDS011;48756;41.374;2.066;2023-02-14T13:49:00;5.70;;;3.05;;
56041;SDS011;48756;41.374;2.066;2023-02-14T13:51:47;18.85;;;2.20;;
56041;SDS011;48756;41.374;2.066;2023-02-14T13:54:27;21.65;;;2.88;;
56041;SDS011;48756;41.374;2.066;2023-02-14T13:56:54;2.67;;;1.55;;
56041;SDS011;48756;41.374;2.066;2023-02-14T13:59:38;3.42;;;1.42;;
56041;SDS011;48756;41.374;2.066;2023-02-14T14:17:37;2.20;;;2.00;;
56041;SDS011;48756;41.374;2.066;2023-02-14T14:22:54;2.90;;;1.00;;
56041;SDS011;48756;41.374;2.066;2023-02-14T14:25:35;4.18;;;1.90;;
56041;SDS011;48756;41.374;2.066;2023-02-14T14:28:09;3.10;;;1.40;;
56041;SDS011;48756;41.374;2.066;2023-02-14T14:30:36;2.38;;;1.33;;
56041;SDS011;48756;41.374;2.066;2023-02-14T14:35:37;2.35;;;1.35;;
56041;SDS011;48756;41.374;2.066;2023-02-14T14:38:03;4.28;;;1.92;;
56041;SDS011;48756;41.374;2.066;2023-02-14T14:40:35;2.80;;;1.48;;
56041;SDS011;48756;41.374;2.066;2023-02-14T14:45:48;2.58;;;1.55;;
56041;SDS011;48756;41.374;2.066;2023-02-14T14:48:17;3.05;;;1.55;;
56041;SDS011;48756;41.374;2.066;2023-02-14T14:51:04;2.33;;;1.80;;
56041;SDS011;48756;41.374;2.066;2023-02-14T14:53:46;4.72;;;1.73;;
56041;SDS011;48756;41.374;2.066;2023-02-14T14:56:18;2.53;;;1.77;;
56041;SDS011;48756;41.374;2.066;2023-02-14T14:58:47;2.60;;;0.90;;
56041;SDS011;48756;41.374;2.066;2023-02-14T15:03:52;2.60;;;1.92;;
56041;SDS011;48756;41.374;2.066;2023-02-14T15:08:44;2.33;;;1.30;;
56041;SDS011;48756;41.374;2.066;2023-02-14T15:16:53;3.75;;;1.42;;
56041;SDS011;48756;41.374;2.066;2023-02-14T15:19:25;3.38;;;2.30;;
56041;SDS011;48756;41.374;2.066;2023-02-14T15:22:23;2.50;;;2.30;;
56041;SDS011;48756;41.374;2.066;2023-02-14T15:24:57;1.52;;;1.13;;
56041;SDS011;48756;41.374;2.066;2023-02-14T15:27:25;2.45;;;1.73;;
56041;SDS011;48756;41.374;2.066;2023-02-14T15:32:25;4.55;;;2.65;;
56041;SDS011;48756;41.374;2.066;2023-02-14T15:34:54;3.20;;;1.98;;
56041;SDS011;48756;41.374;2.066;2023-02-14T15:37:25;1.77;;;1.08;;
56041;SDS011;48756;41.374;2.066;2023-02-14T15:39:51;3.17;;;2.38;;
56041;SDS011;48756;41.374;2.066;2023-02-14T15:44:49;6.07;;;1.77;;
56041;SDS011;48756;41.374;2.066;2023-02-14T15:47:35;1.60;;;1.10;;
56041;SDS011;48756;41.374;2.066;2023-02-14T15:50:01;6.72;;;1.70;;
56041;SDS011;48756;41.374;2.066;2023-02-14T15:52:27;1.25;;;1.15;;
56041;SDS011;48756;41.374;2.066;2023-02-14T15:54:52;1.50;;;0.82;;
56041;SDS011;48756;41.374;2.066;2023-02-14T15:57:20;2.92;;;1.63;;
56041;SDS011;48756;41.374;2.066;2023-02-14T15:59:50;1.73;;;1.20;;
56041;SDS011;48756;41.374;2.066;2023-02-14T16:02:37;2.35;;;1.42;;
56041;SDS011;48756;41.374;2.066;2023-02-14T16:05:05;2.40;;;1.65;;
56041;SDS011;48756;41.374;2.066;2023-02-14T16:07:39;2.28;;;1.52;;
56041;SDS011;48756;41.374;2.066;2023-02-14T16:10:38;2.63;;;1.35;;
56041;SDS011;48756;41.374;2.066;2023-02-14T16:13:03;1.88;;;1.65;;
56041;SDS011;48756;41.374;2.066;2023-02-14T16:16:24;3.22;;;1.50;;
56041;SDS011;48756;41.374;2.066;2023-02-14T16:23:45;2.55;;;1.77;;
56041;SDS011;48756;41.374;2.066;2023-02-14T16:26:35;2.38;;;2.13;;
56041;SDS011;48756;41.374;2.066;2023-02-14T16:29:03;2.78;;;1.42;;
56041;SDS011;48756;41.374;2.066;2023-02-14T16:31:30;3.08;;;1.95;;
56041;SDS011;48756;41.374;2.066;2023-02-14T16:33:56;2.95;;;1.85;;
56041;SDS011;48756;41.374;2.066;2023-02-14T16:36:23;2.67;;;1.55;;
56041;SDS011;48756;41.374;2.066;2023-02-14T16:38:52;3.03;;;1.60;;
56041;SDS011;48756;41.374;2.066;2023-02-14T16:41:19;2.13;;;1.60;;
56041;SDS011;48756;41.374;2.066;2023-02-14T16:43:46;2.78;;;2.58;;
56041;SDS011;48756;41.374;2.066;2023-02-14T16:46:13;4.22;;;1.42;;
56041;SDS011;48756;41.374;2.066;2023-02-14T16:48:40;3.10;;;1.85;;
56041;SDS011;48756;41.374;2.066;2023-02-14T16:51:09;2.65;;;1.92;;
56041;SDS011;48756;41.374;2.066;2023-02-14T16:53:40;4.03;;;3.05;;
56041;SDS011;48756;41.374;2.066;2023-02-14T16:56:08;2.90;;;2.28;;
56041;SDS011;48756;41.374;2.066;2023-02-14T16:58:39;8.07;;;3.50;;
56041;SDS011;48756;41.374;2.066;2023-02-14T17:01:06;5.60;;;2.20;;
56041;SDS011;48756;41.374;2.066;2023-02-14T17:03:31;5.93;;;2.85;;
56041;SDS011;48756;41.374;2.066;2023-02-14T17:05:58;5.07;;;1.88;;
56041;SDS011;48756;41.374;2.066;2023-02-14T17:08:25;3.80;;;2.95;;
56041;SDS011;48756;41.374;2.066;2023-02-14T17:10:52;3.00;;;2.17;;
56041;SDS011;48756;41.374;2.066;2023-02-14T17:13:21;2.97;;;2.60;;
56041;SDS011;48756;41.374;2.066;2023-02-14T17:15:49;6.28;;;1.67;;
56041;SDS011;48756;41.374;2.066;2023-02-14T17:18:15;3.40;;;2.05;;
56041;SDS011;48756;41.374;2.066;2023-02-14T17:20:43;3.95;;;2.58;;
56041;SDS011;48756;41.374;2.066;2023-02-14T17:23:09;5.75;;;2.75;;
56041;SDS011;48756;41.374;2.066;2023-02-14T17:25:34;4.38;;;3.22;;
56041;SDS011;48756;41.374;2.066;2023-02-14T17:28:00;6.47;;;2.33;;
56041;SDS011;48756;41.374;2.066;2023-02-14T17:30:25;15.57;;;3.60;;
56041;SDS011;48756;41.374;2.066;2023-02-14T17:32:51;5.03;;;2.67;;
56041;SDS011;48756;41.374;2.066;2023-02-14T17:35:17;6.03;;;3.75;;
56041;SDS011;48756;41.374;2.066;2023-02-14T17:37:43;5.28;;;3.85;;
56041;SDS011;48756;41.374;2.066;2023-02-14T17:40:09;5.20;;;3.30;;
56041;SDS011;48756;41.374;2.066;2023-02-14T17:42:35;5.15;;;3.55;;
56041;SDS011;48756;41.374;2.066;2023-02-14T17:45:03;5.55;;;3.90;;
56041;SDS011;48756;41.374;2.066;2023-02-14T17:47:30;6.43;;;3.97;;
56041;SDS011;48756;41.374;2.066;2023-02-14T17:49:56;4.75;;;3.72;;
56041;SDS011;48756;41.374;2.066;2023-02-14T17:52:22;4.15;;;3.72;;
56041;SDS011;48756;41.374;2.066;2023-02-14T17:54:48;5.30;;;4.32;;
56041;SDS011;48756;41.374;2.066;2023-02-14T17:57:14;6.18;;;4.60;;
56041;SDS011;48756;41.374;2.066;2023-02-14T18:02:07;8.15;;;4.05;;
56041;SDS011;48756;41.374;2.066;2023-02-14T18:04:33;7.00;;;3.95;;